sensor_id;sensor_type;location;lat;lon;timestamp;pressure;altitude;pressure_sealevel;temperature;humidity
42519;BME280;28147;47.520;18.920;2022-09-09T00:01:28;98206.69;;;18.10;100.00
42519;BME280;28147;47.520;18.920;2022-09-09T00:04:28;98197.13;;;17.99;100.00
42519;BME280;28147;47.520;18.920;2022-09-09T00:07:15;98194.09;;;18.06;100.00
42519;BME280;28147;47.520;18.920;2022-09-09T00:09:50;98176.72;;;18.17;100.00
42519;BME280;28147;47.520;18.920;2022-09-09T00:12:47;98182.19;;;18.12;100.00
42519;BME280;28147;47.520;18.920;2022-09-09T00:15:23;98182.69;;;17.90;100.00
42519;BME280;28147;47.520;18.920;2022-09-09T00:17:59;98185.91;;;17.92;100.00
42519;BME280;28147;47.520;18.920;2022-09-09T00:20:32;98180.88;;;17.85;100.00
42519;BME280;28147;47.520;18.920;2022-09-09T00:25:49;98193.13;;;17.96;100.00
42519;BME280;28147;47.520;18.920;2022-09-09T00:28:20;98191.50;;;17.95;100.00
42519;BME280;28147;47.520;18.920;2022-09-09T00:30:47;98201.53;;;17.90;100.00
42519;BME280;28147;47.520;18.920;2022-09-09T00:33:15;98198.38;;;17.83;100.00
42519;BME280;28147;47.520;18.920;2022-09-09T00:35:57;98201.78;;;17.93;100.00
42519;BME280;28147;47.520;18.920;2022-09-09T00:38:28;98199.59;;;17.37;100.00
42519;BME280;28147;47.520;18.920;2022-09-09T00:41:11;98204.75;;;17.63;100.00
42519;BME280;28147;47.520;18.920;2022-09-09T00:43:40;98196.94;;;17.61;100.00
42519;BME280;28147;47.520;18.920;2022-09-09T00:57:38;98186.97;;;17.91;100.00
42519;BME280;28147;47.520;18.920;2022-09-09T01:08:01;98211.63;;;18.03;100.00
42519;BME280;28147;47.520;18.920;2022-09-09T01:10:43;98207.66;;;17.95;100.00
42519;BME280;28147;47.520;18.920;2022-09-09T01:13:17;98214.56;;;18.07;100.00
42519;BME280;28147;47.520;18.920;2022-09-09T01:15:45;98211.69;;;17.98;100.00
42519;BME280;28147;47.520;18.920;2022-09-09T01:18:16;98206.31;;;17.98;100.00
42519;BME280;28147;47.520;18.920;2022-09-09T01:23:22;98219.84;;;17.93;100.00
42519;BME280;28147;47.520;18.920;2022-09-09T01:28:40;98213.97;;;17.86;100.00
42519;BME280;28147;47.520;18.920;2022-09-09T01:31:09;98209.41;;;17.86;100.00
42519;BME280;28147;47.520;18.920;2022-09-09T01:33:36;98216.56;;;17.96;100.00
42519;BME280;28147;47.520;18.920;2022-09-09T01:36:08;98223.88;;;17.90;100.00
42519;BME280;28147;47.520;18.920;2022-09-09T01:38:35;98220.41;;;17.90;100.00
42519;BME280;28147;47.520;18.920;2022-09-09T01:41:01;98218.09;;;17.78;100.00
42519;BME280;28147;47.520;18.920;2022-09-09T01:43:28;98218.34;;;17.82;100.00
42519;BME280;28147;47.520;18.920;2022-09-09T01:45:55;98228.31;;;17.81;100.00
42519;BME280;28147;47.520;18.920;2022-09-09T01:48:24;98230.22;;;17.75;100.00
42519;BME280;28147;47.520;18.920;2022-09-09T01:50:49;98236.59;;;17.56;100.00
42519;BME280;28147;47.520;18.920;2022-09-09T01:53:17;98234.84;;;17.70;100.00
42519;BME280;28147;47.520;18.920;2022-09-09T02:03:51;98232.41;;;17.68;100.00
42519;BME280;28147;47.520;18.920;2022-09-09T02:06:38;98236.66;;;17.80;100.00
42519;BME280;28147;47.520;18.920;2022-09-09T02:09:05;98242.38;;;17.68;100.00
42519;BME280;28147;47.520;18.920;2022-09-09T02:11:32;98234.41;;;17.58;100.00
42519;BME280;28147;47.520;18.920;2022-09-09T02:14:09;98229.53;;;17.60;100.00
42519;BME280;28147;47.520;18.920;2022-09-09T02:16:44;98234.63;;;17.61;100.00
42519;BME280;28147;47.520;18.920;2022-09-09T02:19:19;98235.22;;;17.58;100.00
42519;BME280;28147;47.520;18.920;2022-09-09T02:21:52;98223.59;;;17.63;100.00
42519;BME280;28147;47.520;18.920;2022-09-09T02:24:19;98221.34;;;17.75;100.00
42519;BME280;28147;47.520;18.920;2022-09-09T02:26:46;98223.84;;;17.66;100.00
42519;BME280;28147;47.520;18.920;2022-09-09T02:29:16;98218.38;;;17.77;98.82
42519;BME280;28147;47.520;18.920;2022-09-09T02:31:45;98211.47;;;17.65;99.50
42519;BME280;28147;47.520;18.920;2022-09-09T02:34:13;98210.69;;;17.60;100.00
42519;BME280;28147;47.520;18.920;2022-09-09T02:36:42;98214.38;;;17.69;97.57
42519;BME280;28147;47.520;18.920;2022-09-09T02:39:09;98208.53;;;17.62;98.20
42519;BME280;28147;47.520;18.920;2022-09-09T02:41:38;98202.69;;;17.55;98.66
42519;BME280;28147;47.520;18.920;2022-09-09T02:44:14;98208.19;;;17.68;98.18
42519;BME280;28147;47.520;18.920;2022-09-09T02:49:28;98206.91;;;17.61;98.93
42519;BME280;28147;47.520;18.920;2022-09-09T02:52:04;98207.28;;;17.49;99.52
42519;BME280;28147;47.520;18.920;2022-09-09T02:54:35;98209.75;;;17.45;99.34
42519;BME280;28147;47.520;18.920;2022-09-09T02:57:13;98206.00;;;17.46;98.92
42519;BME280;28147;47.520;18.920;2022-09-09T02:59:43;98213.81;;;17.43;99.53
42519;BME280;28147;47.520;18.920;2022-09-09T03:02:09;98200.63;;;17.41;98.35
42519;BME280;28147;47.520;18.920;2022-09-09T03:04:35;98207.34;;;17.44;98.95
42519;BME280;28147;47.520;18.920;2022-09-09T03:07:00;98205.22;;;17.41;99.34
42519;BME280;28147;47.520;18.920;2022-09-09T03:09:26;98213.25;;;17.46;98.73
42519;BME280;28147;47.520;18.920;2022-09-09T03:11:52;98212.41;;;17.50;98.33
42519;BME280;28147;47.520;18.920;2022-09-09T03:14:17;98215.47;;;17.39;100.00
42519;BME280;28147;47.520;18.920;2022-09-09T03:16:46;98221.84;;;17.48;98.79
42519;BME280;28147;47.520;18.920;2022-09-09T03:19:12;98229.13;;;17.47;99.38
42519;BME280;28147;47.520;18.920;2022-09-09T03:21:37;98232.81;;;17.22;100.00
42519;BME280;28147;47.520;18.920;2022-09-09T03:24:03;98230.09;;;17.27;100.00
42519;BME280;28147;47.520;18.920;2022-09-09T03:26:29;98221.25;;;17.22;100.00
42519;BME280;28147;47.520;18.920;2022-09-09T03:28:56;98224.19;;;17.25;100.00
42519;BME280;28147;47.520;18.920;2022-09-09T03:31:21;98232.25;;;17.25;99.17
42519;BME280;28147;47.520;18.920;2022-09-09T03:33:47;98237.69;;;17.15;100.00
42519;BME280;28147;47.520;18.920;2022-09-09T03:36:13;98239.22;;;17.26;100.00
42519;BME280;28147;47.520;18.920;2022-09-09T03:38:39;98243.56;;;17.22;100.00
42519;BME280;28147;47.520;18.920;2022-09-09T03:41:04;98235.31;;;17.14;99.82
42519;BME280;28147;47.520;18.920;2022-09-09T03:43:33;98240.63;;;17.19;100.00
42519;BME280;28147;47.520;18.920;2022-09-09T03:45:59;98241.53;;;17.04;100.00
42519;BME280;28147;47.520;18.920;2022-09-09T03:48:24;98247.16;;;17.08;100.00
42519;BME280;28147;47.520;18.920;2022-09-09T03:50:53;98247.25;;;16.97;100.00
42519;BME280;28147;47.520;18.920;2022-09-09T03:53:20;98250.75;;;16.98;100.00
42519;BME280;28147;47.520;18.920;2022-09-09T03:55:50;98247.97;;;17.08;100.00
42519;BME280;28147;47.520;18.920;2022-09-09T03:58:18;98261.50;;;16.93;100.00
42519;BME280;28147;47.520;18.920;2022-09-09T04:01:02;98258.06;;;16.87;100.00
42519;BME280;28147;47.520;18.920;2022-09-09T04:03:28;98253.78;;;16.86;100.00
42519;BME280;28147;47.520;18.920;2022-09-09T04:05:55;98256.72;;;16.90;100.00
42519;BME280;28147;47.520;18.920;2022-09-09T04:08:21;98247.34;;;16.82;100.00
42519;BME280;28147;47.520;18.920;2022-09-09T04:10:50;98252.44;;;16.84;100.00
42519;BME280;28147;47.520;18.920;2022-09-09T04:13:16;98248.56;;;17.05;100.00
42519;BME280;28147;47.520;18.920;2022-09-09T04:15:52;98249.66;;;16.99;100.00
42519;BME280;28147;47.520;18.920;2022-09-09T04:18:19;98243.16;;;17.05;100.00
42519;BME280;28147;47.520;18.920;2022-09-09T04:20:52;98248.31;;;17.01;100.00
42519;BME280;28147;47.520;18.920;2022-09-09T04:23:18;98238.84;;;17.04;100.00
42519;BME280;28147;47.520;18.920;2022-09-09T04:25:46;98246.66;;;17.06;100.00
42519;BME280;28147;47.520;18.920;2022-09-09T04:28:15;98242.13;;;16.96;100.00
42519;BME280;28147;47.520;18.920;2022-09-09T04:30:42;98250.41;;;17.05;100.00
42519;BME280;28147;47.520;18.920;2022-09-09T04:33:08;98248.56;;;17.05;100.00
42519;BME280;28147;47.520;18.920;2022-09-09T04:35:35;98248.06;;;16.98;100.00
42519;BME280;28147;47.520;18.920;2022-09-09T04:38:01;98242.31;;;17.10;100.00
42519;BME280;28147;47.520;18.920;2022-09-09T04:40:28;98241.63;;;16.94;100.00
42519;BME280;28147;47.520;18.920;2022-09-09T04:42:55;98235.72;;;16.92;100.00
42519;BME280;28147;47.520;18.920;2022-09-09T04:45:20;98230.13;;;16.78;100.00
42519;BME280;28147;47.520;18.920;2022-09-09T04:47:46;98221.78;;;16.85;100.00
42519;BME280;28147;47.520;18.920;2022-09-09T04:50:11;98231.88;;;17.03;100.00
42519;BME280;28147;47.520;18.920;2022-09-09T04:52:37;98233.91;;;16.82;100.00
42519;BME280;28147;47.520;18.920;2022-09-09T04:55:03;98239.75;;;16.94;100.00
42519;BME280;28147;47.520;18.920;2022-09-09T04:57:29;98243.16;;;17.05;100.00
42519;BME280;28147;47.520;18.920;2022-09-09T04:59:57;98244.22;;;17.09;100.00
42519;BME280;28147;47.520;18.920;2022-09-09T05:02:23;98250.44;;;16.99;100.00
42519;BME280;28147;47.520;18.920;2022-09-09T05:04:48;98263.09;;;16.99;100.00
42519;BME280;28147;47.520;18.920;2022-09-09T05:07:15;98259.31;;;17.05;100.00
42519;BME280;28147;47.520;18.920;2022-09-09T05:09:40;98256.91;;;16.98;100.00
42519;BME280;28147;47.520;18.920;2022-09-09T05:12:06;98257.47;;;16.95;100.00
42519;BME280;28147;47.520;18.920;2022-09-09T05:14:31;98257.63;;;17.14;100.00
42519;BME280;28147;47.520;18.920;2022-09-09T05:16:57;98259.75;;;17.17;100.00
42519;BME280;28147;47.520;18.920;2022-09-09T05:19:23;98266.44;;;17.25;100.00
42519;BME280;28147;47.520;18.920;2022-09-09T05:21:48;98267.53;;;17.24;100.00
42519;BME280;28147;47.520;18.920;2022-09-09T05:24:15;98261.00;;;17.30;100.00
42519;BME280;28147;47.520;18.920;2022-09-09T05:26:40;98256.47;;;17.25;100.00
42519;BME280;28147;47.520;18.920;2022-09-09T05:29:06;98249.94;;;17.37;100.00
42519;BME280;28147;47.520;18.920;2022-09-09T05:31:33;98272.31;;;17.61;100.00
42519;BME280;28147;47.520;18.920;2022-09-09T05:33:58;98264.91;;;17.48;100.00
42519;BME280;28147;47.520;18.920;2022-09-09T05:36:24;98263.19;;;17.62;100.00
42519;BME280;28147;47.520;18.920;2022-09-09T05:38:50;98263.88;;;17.44;100.00
42519;BME280;28147;47.520;18.920;2022-09-09T05:41:16;98261.41;;;17.47;100.00
42519;BME280;28147;47.520;18.920;2022-09-09T05:43:43;98258.53;;;17.39;100.00
42519;BME280;28147;47.520;18.920;2022-09-09T05:46:23;98254.19;;;17.43;100.00
42519;BME280;28147;47.520;18.920;2022-09-09T05:48:50;98257.16;;;17.41;100.00
42519;BME280;28147;47.520;18.920;2022-09-09T05:51:19;98251.25;;;17.68;100.00
42519;BME280;28147;47.520;18.920;2022-09-09T05:53:46;98253.69;;;17.99;99.54
42519;BME280;28147;47.520;18.920;2022-09-09T05:56:17;98257.31;;;18.13;100.00
42519;BME280;28147;47.520;18.920;2022-09-09T05:58:43;98257.16;;;18.29;100.00
42519;BME280;28147;47.520;18.920;2022-09-09T06:01:15;98260.13;;;18.51;100.00
42519;BME280;28147;47.520;18.920;2022-09-09T06:03:42;98261.50;;;18.91;98.45
42519;BME280;28147;47.520;18.920;2022-09-09T06:06:10;98264.88;;;19.21;96.26
42519;BME280;28147;47.520;18.920;2022-09-09T06:08:38;98267.47;;;19.26;95.45
42519;BME280;28147;47.520;18.920;2022-09-09T06:11:12;98269.56;;;19.48;93.85
42519;BME280;28147;47.520;18.920;2022-09-09T06:13:38;98265.25;;;19.66;92.54
42519;BME280;28147;47.520;18.920;2022-09-09T06:16:12;98265.59;;;19.92;93.45
42519;BME280;28147;47.520;18.920;2022-09-09T06:18:39;98275.50;;;19.83;88.73
42519;BME280;28147;47.520;18.920;2022-09-09T06:21:06;98275.19;;;19.52;89.15
42519;BME280;28147;47.520;18.920;2022-09-09T06:23:35;98274.22;;;19.61;89.24
42519;BME280;28147;47.520;18.920;2022-09-09T06:26:06;98274.75;;;19.63;87.85
42519;BME280;28147;47.520;18.920;2022-09-09T06:28:34;98276.09;;;19.80;89.68
42519;BME280;28147;47.520;18.920;2022-09-09T06:31:04;98282.81;;;19.12;88.18
42519;BME280;28147;47.520;18.920;2022-09-09T06:33:31;98280.75;;;19.04;88.47
42519;BME280;28147;47.520;18.920;2022-09-09T06:36:00;98278.63;;;19.19;93.10
42519;BME280;28147;47.520;18.920;2022-09-09T06:38:25;98284.25;;;19.42;91.23
42519;BME280;28147;47.520;18.920;2022-09-09T06:40:52;98274.00;;;19.58;92.69
42519;BME280;28147;47.520;18.920;2022-09-09T06:43:19;98271.72;;;18.76;93.62
42519;BME280;28147;47.520;18.920;2022-09-09T06:46:02;98274.94;;;18.96;94.35
42519;BME280;28147;47.520;18.920;2022-09-09T06:48:29;98279.38;;;19.06;94.91
42519;BME280;28147;47.520;18.920;2022-09-09T06:51:05;98282.72;;;19.36;94.18
42519;BME280;28147;47.520;18.920;2022-09-09T06:53:33;98295.38;;;19.54;95.07
42519;BME280;28147;47.520;18.920;2022-09-09T06:56:02;98290.31;;;19.34;92.36
42519;BME280;28147;47.520;18.920;2022-09-09T06:58:42;98285.34;;;19.22;94.54
42519;BME280;28147;47.520;18.920;2022-09-09T07:01:13;98290.00;;;18.98;92.08
42519;BME280;28147;47.520;18.920;2022-09-09T07:03:39;98297.09;;;18.93;97.49
42519;BME280;28147;47.520;18.920;2022-09-09T07:06:06;98299.94;;;18.83;98.38
42519;BME280;28147;47.520;18.920;2022-09-09T07:08:32;98303.63;;;18.63;98.77
42519;BME280;28147;47.520;18.920;2022-09-09T07:11:05;98300.22;;;19.01;96.95
42519;BME280;28147;47.520;18.920;2022-09-09T07:13:31;98299.97;;;19.21;92.68
42519;BME280;28147;47.520;18.920;2022-09-09T07:16:08;98297.06;;;19.50;90.23
42519;BME280;28147;47.520;18.920;2022-09-09T07:18:34;98295.38;;;20.06;87.85
42519;BME280;28147;47.520;18.920;2022-09-09T07:21:00;98284.25;;;19.93;85.23
42519;BME280;28147;47.520;18.920;2022-09-09T07:23:27;98293.78;;;20.05;82.34
42519;BME280;28147;47.520;18.920;2022-09-09T07:25:53;98300.78;;;20.33;85.97
42519;BME280;28147;47.520;18.920;2022-09-09T07:28:19;98295.84;;;20.54;83.89
42519;BME280;28147;47.520;18.920;2022-09-09T07:31:05;98304.69;;;20.96;82.25
42519;BME280;28147;47.520;18.920;2022-09-09T07:33:33;98297.94;;;20.57;78.34
42519;BME280;28147;47.520;18.920;2022-09-09T07:36:04;98296.06;;;20.94;77.84
42519;BME280;28147;47.520;18.920;2022-09-09T07:38:31;98300.72;;;21.30;79.33
42519;BME280;28147;47.520;18.920;2022-09-09T07:41:30;98299.66;;;21.53;79.18
42519;BME280;28147;47.520;18.920;2022-09-09T07:43:57;98309.88;;;21.79;72.43
42519;BME280;28147;47.520;18.920;2022-09-09T07:46:25;98312.31;;;21.89;69.65
42519;BME280;28147;47.520;18.920;2022-09-09T07:48:55;98311.47;;;22.11;74.74
42519;BME280;28147;47.520;18.920;2022-09-09T07:51:22;98308.88;;;21.75;69.54
42519;BME280;28147;47.520;18.920;2022-09-09T07:53:52;98303.41;;;22.20;69.24
42519;BME280;28147;47.520;18.920;2022-09-09T07:56:18;98298.25;;;22.49;69.54
42519;BME280;28147;47.520;18.920;2022-09-09T07:58:47;98304.91;;;22.83;68.42
42519;BME280;28147;47.520;18.920;2022-09-09T08:01:16;98298.75;;;23.09;67.17
42519;BME280;28147;47.520;18.920;2022-09-09T08:03:46;98303.72;;;23.50;63.01
42519;BME280;28147;47.520;18.920;2022-09-09T08:06:16;98313.47;;;23.77;61.83
42519;BME280;28147;47.520;18.920;2022-09-09T08:08:42;98309.44;;;23.92;59.07
42519;BME280;28147;47.520;18.920;2022-09-09T08:11:10;98320.94;;;24.06;59.00
42519;BME280;28147;47.520;18.920;2022-09-09T08:13:37;98312.69;;;24.41;58.15
42519;BME280;28147;47.520;18.920;2022-09-09T08:16:05;98303.97;;;24.56;57.60
42519;BME280;28147;47.520;18.920;2022-09-09T08:18:30;98308.00;;;24.80;56.17
42519;BME280;28147;47.520;18.920;2022-09-09T08:20:56;98305.44;;;24.83;54.59
42519;BME280;28147;47.520;18.920;2022-09-09T08:23:21;98300.09;;;25.37;54.86
42519;BME280;28147;47.520;18.920;2022-09-09T08:25:47;98311.25;;;25.44;53.59
42519;BME280;28147;47.520;18.920;2022-09-09T08:28:14;98304.63;;;25.12;53.86
42519;BME280;28147;47.520;18.920;2022-09-09T08:30:42;98304.78;;;25.16;54.94
42519;BME280;28147;47.520;18.920;2022-09-09T08:33:09;98304.34;;;25.47;55.82
42519;BME280;28147;47.520;18.920;2022-09-09T08:35:34;98302.78;;;25.79;56.55
42519;BME280;28147;47.520;18.920;2022-09-09T08:38:00;98301.22;;;25.78;55.00
42519;BME280;28147;47.520;18.920;2022-09-09T08:40:29;98306.69;;;25.90;51.59
42519;BME280;28147;47.520;18.920;2022-09-09T08:42:59;98310.50;;;26.10;51.39
42519;BME280;28147;47.520;18.920;2022-09-09T08:45:29;98313.94;;;26.19;47.43
42519;BME280;28147;47.520;18.920;2022-09-09T08:48:12;98326.44;;;26.33;48.88
42519;BME280;28147;47.520;18.920;2022-09-09T08:50:42;98328.91;;;26.47;50.23
42519;BME280;28147;47.520;18.920;2022-09-09T08:53:18;98328.16;;;26.25;47.26
42519;BME280;28147;47.520;18.920;2022-09-09T08:55:53;98332.66;;;26.54;48.50
42519;BME280;28147;47.520;18.920;2022-09-09T08:58:27;98326.50;;;26.57;45.19
42519;BME280;28147;47.520;18.920;2022-09-09T09:03:51;98325.66;;;26.32;50.45
42519;BME280;28147;47.520;18.920;2022-09-09T09:11:26;98314.88;;;26.97;51.76
42519;BME280;28147;47.520;18.920;2022-09-09T09:13:59;98308.75;;;27.12;52.33
42519;BME280;28147;47.520;18.920;2022-09-09T09:16:53;98313.56;;;27.31;51.95
42519;BME280;28147;47.520;18.920;2022-09-09T09:19:20;98317.50;;;27.18;47.41
42519;BME280;28147;47.520;18.920;2022-09-09T09:21:50;98320.41;;;27.37;45.75
42519;BME280;28147;47.520;18.920;2022-09-09T09:24:20;98315.91;;;27.17;44.07
42519;BME280;28147;47.520;18.920;2022-09-09T09:26:47;98319.81;;;27.44;44.04
42519;BME280;28147;47.520;18.920;2022-09-09T09:29:15;98308.69;;;27.65;43.71
42519;BME280;28147;47.520;18.920;2022-09-09T09:31:48;98302.84;;;27.51;41.64
42519;BME280;28147;47.520;18.920;2022-09-09T09:34:16;98287.78;;;27.16;42.77
42519;BME280;28147;47.520;18.920;2022-09-09T09:37:01;98296.94;;;27.36;40.45
42519;BME280;28147;47.520;18.920;2022-09-09T09:39:32;98300.72;;;27.32;42.69
42519;BME280;28147;47.520;18.920;2022-09-09T09:42:11;98297.66;;;27.89;42.15
42519;BME280;28147;47.520;18.920;2022-09-09T09:44:40;98298.44;;;27.90;40.36
42519;BME280;28147;47.520;18.920;2022-09-09T09:47:13;98300.69;;;28.00;40.71
42519;BME280;28147;47.520;18.920;2022-09-09T09:49:50;98307.53;;;27.78;38.86
42519;BME280;28147;47.520;18.920;2022-09-09T09:52:24;98309.03;;;27.35;39.31
42519;BME280;28147;47.520;18.920;2022-09-09T09:54:50;98316.09;;;27.64;38.24
42519;BME280;28147;47.520;18.920;2022-09-09T09:57:17;98313.63;;;28.03;40.45
42519;BME280;28147;47.520;18.920;2022-09-09T09:59:45;98308.50;;;27.86;40.65
42519;BME280;28147;47.520;18.920;2022-09-09T10:04:39;98299.63;;;26.96;36.92
42519;BME280;28147;47.520;18.920;2022-09-09T10:07:21;98305.63;;;27.26;36.22
42519;BME280;28147;47.520;18.920;2022-09-09T10:09:55;98298.63;;;27.81;36.67
42519;BME280;28147;47.520;18.920;2022-09-09T10:19:58;98298.41;;;26.69;36.07
42519;BME280;28147;47.520;18.920;2022-09-09T10:22:33;98302.09;;;26.15;35.43
42519;BME280;28147;47.520;18.920;2022-09-09T10:33:56;98305.31;;;27.84;33.19
42519;BME280;28147;47.520;18.920;2022-09-09T10:36:26;98304.94;;;28.29;33.32
42519;BME280;28147;47.520;18.920;2022-09-09T10:55:16;98304.91;;;28.13;32.25
42519;BME280;28147;47.520;18.920;2022-09-09T11:00:22;98299.94;;;27.19;31.55
42519;BME280;28147;47.520;18.920;2022-09-09T11:02:52;98304.94;;;28.29;31.90
42519;BME280;28147;47.520;18.920;2022-09-09T11:05:24;98298.66;;;28.29;32.29
42519;BME280;28147;47.520;18.920;2022-09-09T11:08:01;98296.13;;;28.52;34.73
42519;BME280;28147;47.520;18.920;2022-09-09T11:13:40;98298.94;;;27.52;34.28
42519;BME280;28147;47.520;18.920;2022-09-09T11:19:30;98292.47;;;26.30;39.46
42519;BME280;28147;47.520;18.920;2022-09-09T11:22:01;98298.78;;;26.10;39.58
42519;BME280;28147;47.520;18.920;2022-09-09T11:24:41;98288.59;;;26.43;39.45
42519;BME280;28147;47.520;18.920;2022-09-09T11:27:22;98289.31;;;26.53;39.81
42519;BME280;28147;47.520;18.920;2022-09-09T11:38:25;98307.16;;;25.38;43.17
42519;BME280;28147;47.520;18.920;2022-09-09T11:41:00;98309.66;;;25.02;44.54
42519;BME280;28147;47.520;18.920;2022-09-09T11:43:31;98302.19;;;24.90;45.12
42519;BME280;28147;47.520;18.920;2022-09-09T11:46:00;98292.78;;;25.08;45.88
42519;BME280;28147;47.520;18.920;2022-09-09T11:48:33;98294.63;;;24.95;44.50
42519;BME280;28147;47.520;18.920;2022-09-09T11:53:30;98286.69;;;25.11;45.41
42519;BME280;28147;47.520;18.920;2022-09-09T11:58:35;98289.34;;;26.07;44.78
42519;BME280;28147;47.520;18.920;2022-09-09T12:01:16;98287.38;;;26.53;44.37
42519;BME280;28147;47.520;18.920;2022-09-09T12:04:00;98285.72;;;26.03;45.17
42519;BME280;28147;47.520;18.920;2022-09-09T12:06:32;98283.63;;;26.58;43.87
42519;BME280;28147;47.520;18.920;2022-09-09T12:09:21;98289.28;;;26.89;41.90
42519;BME280;28147;47.520;18.920;2022-09-09T12:11:48;98301.34;;;26.52;40.54
42519;BME280;28147;47.520;18.920;2022-09-09T12:17:22;98307.13;;;25.80;41.34
42519;BME280;28147;47.520;18.920;2022-09-09T12:19:48;98293.81;;;25.79;42.17
42519;BME280;28147;47.520;18.920;2022-09-09T12:25:14;98285.06;;;26.31;41.62
42519;BME280;28147;47.520;18.920;2022-09-09T12:30:16;98270.50;;;26.27;40.56
42519;BME280;28147;47.520;18.920;2022-09-09T12:32:42;98264.94;;;26.11;42.00
42519;BME280;28147;47.520;18.920;2022-09-09T12:35:22;98266.44;;;25.87;42.43
42519;BME280;28147;47.520;18.920;2022-09-09T12:37:53;98269.75;;;25.81;41.51
42519;BME280;28147;47.520;18.920;2022-09-09T12:40:30;98271.59;;;25.89;41.94
42519;BME280;28147;47.520;18.920;2022-09-09T12:42:58;98262.84;;;25.62;40.70
42519;BME280;28147;47.520;18.920;2022-09-09T12:45:28;98258.75;;;25.89;40.28
42519;BME280;28147;47.520;18.920;2022-09-09T12:48:02;98257.78;;;25.73;40.84
42519;BME280;28147;47.520;18.920;2022-09-09T12:50:34;98254.44;;;25.88;40.63
42519;BME280;28147;47.520;18.920;2022-09-09T12:53:08;98251.66;;;25.76;38.32
42519;BME280;28147;47.520;18.920;2022-09-09T12:55:37;98242.19;;;25.61;41.30
42519;BME280;28147;47.520;18.920;2022-09-09T12:58:05;98246.13;;;25.85;39.48
42519;BME280;28147;47.520;18.920;2022-09-09T13:00:32;98231.22;;;25.82;40.08
42519;BME280;28147;47.520;18.920;2022-09-09T13:03:13;98229.41;;;25.86;40.20
42519;BME280;28147;47.520;18.920;2022-09-09T13:05:39;98229.47;;;25.78;38.84
42519;BME280;28147;47.520;18.920;2022-09-09T13:08:08;98226.25;;;25.84;40.96
42519;BME280;28147;47.520;18.920;2022-09-09T13:10:50;98222.53;;;25.68;38.10
42519;BME280;28147;47.520;18.920;2022-09-09T13:13:28;98224.56;;;25.71;39.57
42519;BME280;28147;47.520;18.920;2022-09-09T13:15:57;98222.34;;;25.40;40.27
42519;BME280;28147;47.520;18.920;2022-09-09T13:18:32;98219.97;;;25.38;39.43
42519;BME280;28147;47.520;18.920;2022-09-09T13:20:58;98211.59;;;25.02;39.48
42519;BME280;28147;47.520;18.920;2022-09-09T13:23:30;98209.66;;;24.81;39.86
42519;BME280;28147;47.520;18.920;2022-09-09T13:26:02;98213.22;;;24.73;40.51
42519;BME280;28147;47.520;18.920;2022-09-09T13:28:30;98219.22;;;24.87;41.10
42519;BME280;28147;47.520;18.920;2022-09-09T13:31:20;98224.47;;;24.92;41.43
42519;BME280;28147;47.520;18.920;2022-09-09T13:33:46;98215.72;;;24.87;40.47
42519;BME280;28147;47.520;18.920;2022-09-09T13:36:12;98220.06;;;25.00;41.83
42519;BME280;28147;47.520;18.920;2022-09-09T13:39:00;98212.13;;;24.95;40.26
42519;BME280;28147;47.520;18.920;2022-09-09T13:41:35;98222.28;;;24.86;40.75
42519;BME280;28147;47.520;18.920;2022-09-09T13:44:02;98224.94;;;24.94;40.47
42519;BME280;28147;47.520;18.920;2022-09-09T13:46:39;98209.13;;;24.88;42.00
42519;BME280;28147;47.520;18.920;2022-09-09T13:51:36;98200.91;;;24.75;44.56
42519;BME280;28147;47.520;18.920;2022-09-09T13:54:06;98201.47;;;24.81;43.45
42519;BME280;28147;47.520;18.920;2022-09-09T13:56:34;98183.22;;;25.03;43.20
42519;BME280;28147;47.520;18.920;2022-09-09T13:59:00;98181.28;;;25.03;44.57
42519;BME280;28147;47.520;18.920;2022-09-09T14:01:26;98175.03;;;25.03;42.77
42519;BME280;28147;47.520;18.920;2022-09-09T14:03:53;98170.94;;;24.96;44.23
42519;BME280;28147;47.520;18.920;2022-09-09T14:06:18;98174.47;;;24.76;43.63
42519;BME280;28147;47.520;18.920;2022-09-09T14:08:44;98165.97;;;24.78;44.41
42519;BME280;28147;47.520;18.920;2022-09-09T14:11:12;98163.81;;;24.62;43.90
42519;BME280;28147;47.520;18.920;2022-09-09T14:13:38;98167.81;;;24.44;44.19
42519;BME280;28147;47.520;18.920;2022-09-09T14:16:04;98171.34;;;24.44;42.33
42519;BME280;28147;47.520;18.920;2022-09-09T14:18:30;98161.66;;;24.26;43.88
42519;BME280;28147;47.520;18.920;2022-09-09T14:20:55;98157.66;;;24.23;44.19
42519;BME280;28147;47.520;18.920;2022-09-09T14:23:22;98169.00;;;24.25;44.11
42519;BME280;28147;47.520;18.920;2022-09-09T14:25:47;98162.59;;;24.30;43.92
42519;BME280;28147;47.520;18.920;2022-09-09T14:28:14;98170.41;;;24.32;44.54
42519;BME280;28147;47.520;18.920;2022-09-09T14:30:41;98164.16;;;24.40;45.68
42519;BME280;28147;47.520;18.920;2022-09-09T14:33:08;98156.34;;;24.30;44.22
42519;BME280;28147;47.520;18.920;2022-09-09T14:35:34;98167.63;;;24.49;44.42
42519;BME280;28147;47.520;18.920;2022-09-09T14:38:00;98156.72;;;24.49;45.32
42519;BME280;28147;47.520;18.920;2022-09-09T14:40:26;98156.22;;;24.56;45.15
42519;BME280;28147;47.520;18.920;2022-09-09T14:42:52;98156.72;;;24.49;43.13
42519;BME280;28147;47.520;18.920;2022-09-09T14:45:18;98161.03;;;24.50;43.15
42519;BME280;28147;47.520;18.920;2022-09-09T14:47:43;98156.09;;;24.43;43.07
42519;BME280;28147;47.520;18.920;2022-09-09T14:50:12;98152.56;;;24.51;44.51
42519;BME280;28147;47.520;18.920;2022-09-09T14:52:38;98152.03;;;24.28;41.32
42519;BME280;28147;47.520;18.920;2022-09-09T14:55:04;98158.72;;;24.40;42.87